sensor_id;sensor_type;location;lat;lon;timestamp;P1;durP1;ratioP1;P2;durP2;ratioP2
11665;SDS011;5889;51.350;6.708;2023-05-07T00:02:10;5.53;;;4.43;;
11665;SDS011;5889;51.350;6.708;2023-05-07T00:04:39;7.00;;;4.23;;
11665;SDS011;5889;51.350;6.708;2023-05-07T00:07:05;6.83;;;4.03;;
11665;SDS011;5889;51.350;6.708;2023-05-07T00:09:32;5.40;;;4.10;;
11665;SDS011;5889;51.350;6.708;2023-05-07T00:11:59;4.80;;;3.60;;
11665;SDS011;5889;51.350;6.708;2023-05-07T00:14:26;4.60;;;3.90;;
11665;SDS011;5889;51.350;6.708;2023-05-07T00:16:53;5.60;;;4.60;;
11665;SDS011;5889;51.350;6.708;2023-05-07T00:19:21;5.97;;;4.30;;
11665;SDS011;5889;51.350;6.708;2023-05-07T00:21:49;5.07;;;4.40;;
11665;SDS011;5889;51.350;6.708;2023-05-07T00:24:18;7.23;;;4.47;;
11665;SDS011;5889;51.350;6.708;2023-05-07T00:26:45;4.57;;;3.90;;
11665;SDS011;5889;51.350;6.708;2023-05-07T00:29:12;5.73;;;4.40;;
11665;SDS011;5889;51.350;6.708;2023-05-07T00:31:39;5.53;;;4.53;;
11665;SDS011;5889;51.350;6.708;2023-05-07T00:34:06;7.17;;;4.47;;
11665;SDS011;5889;51.350;6.708;2023-05-07T00:36:33;5.50;;;4.47;;
11665;SDS011;5889;51.350;6.708;2023-05-07T00:39:04;7.27;;;4.60;;
11665;SDS011;5889;51.350;6.708;2023-05-07T00:41:31;7.27;;;4.50;;
11665;SDS011;5889;51.350;6.708;2023-05-07T00:43:58;8.33;;;4.63;;
11665;SDS011;5889;51.350;6.708;2023-05-07T00:46:27;5.03;;;4.53;;
11665;SDS011;5889;51.350;6.708;2023-05-07T00:48:55;6.07;;;4.33;;
11665;SDS011;5889;51.350;6.708;2023-05-07T00:51:22;6.60;;;4.77;;
11665;SDS011;5889;51.350;6.708;2023-05-07T00:53:49;5.47;;;4.80;;
11665;SDS011;5889;51.350;6.708;2023-05-07T00:56:21;7.13;;;4.70;;
11665;SDS011;5889;51.350;6.708;2023-05-07T00:58:48;6.03;;;4.90;;
11665;SDS011;5889;51.350;6.708;2023-05-07T01:01:15;6.97;;;4.80;;
11665;SDS011;5889;51.350;6.708;2023-05-07T01:03:42;7.87;;;4.80;;
11665;SDS011;5889;51.350;6.708;2023-05-07T01:06:10;8.73;;;4.70;;
11665;SDS011;5889;51.350;6.708;2023-05-07T01:08:41;6.53;;;4.80;;
11665;SDS011;5889;51.350;6.708;2023-05-07T01:11:09;6.97;;;4.73;;
11665;SDS011;5889;51.350;6.708;2023-05-07T01:13:38;7.03;;;4.60;;
11665;SDS011;5889;51.350;6.708;2023-05-07T01:16:06;6.30;;;4.67;;
11665;SDS011;5889;51.350;6.708;2023-05-07T01:18:35;6.70;;;4.60;;
11665;SDS011;5889;51.350;6.708;2023-05-07T01:21:03;7.73;;;4.70;;
11665;SDS011;5889;51.350;6.708;2023-05-07T01:23:32;7.40;;;4.53;;
11665;SDS011;5889;51.350;6.708;2023-05-07T01:26:01;5.87;;;4.37;;
11665;SDS011;5889;51.350;6.708;2023-05-07T01:28:28;5.43;;;4.50;;
11665;SDS011;5889;51.350;6.708;2023-05-07T01:31:00;5.70;;;4.60;;
11665;SDS011;5889;51.350;6.708;2023-05-07T01:33:31;8.43;;;4.77;;
11665;SDS011;5889;51.350;6.708;2023-05-07T01:36:01;6.50;;;4.63;;
11665;SDS011;5889;51.350;6.708;2023-05-07T01:38:32;6.73;;;4.90;;
11665;SDS011;5889;51.350;6.708;2023-05-07T01:41:00;7.03;;;5.10;;
11665;SDS011;5889;51.350;6.708;2023-05-07T01:43:27;7.73;;;4.60;;
11665;SDS011;5889;51.350;6.708;2023-05-07T01:45:55;5.87;;;4.67;;
11665;SDS011;5889;51.350;6.708;2023-05-07T01:48:23;8.07;;;5.17;;
11665;SDS011;5889;51.350;6.708;2023-05-07T01:50:50;5.70;;;5.10;;
11665;SDS011;5889;51.350;6.708;2023-05-07T01:53:18;7.40;;;5.17;;
11665;SDS011;5889;51.350;6.708;2023-05-07T01:55:46;5.57;;;4.80;;
11665;SDS011;5889;51.350;6.708;2023-05-07T01:58:15;6.27;;;5.10;;
11665;SDS011;5889;51.350;6.708;2023-05-07T02:00:42;5.70;;;4.80;;
11665;SDS011;5889;51.350;6.708;2023-05-07T02:03:10;9.27;;;5.03;;
11665;SDS011;5889;51.350;6.708;2023-05-07T02:05:37;8.10;;;5.03;;
11665;SDS011;5889;51.350;6.708;2023-05-07T02:08:04;9.23;;;4.93;;
11665;SDS011;5889;51.350;6.708;2023-05-07T02:10:31;7.67;;;5.17;;
11665;SDS011;5889;51.350;6.708;2023-05-07T02:12:59;5.50;;;4.70;;
11665;SDS011;5889;51.350;6.708;2023-05-07T02:15:26;7.03;;;5.30;;
11665;SDS011;5889;51.350;6.708;2023-05-07T02:18:00;6.27;;;5.27;;
11665;SDS011;5889;51.350;6.708;2023-05-07T02:20:29;5.73;;;4.90;;
11665;SDS011;5889;51.350;6.708;2023-05-07T02:22:56;6.03;;;5.10;;
11665;SDS011;5889;51.350;6.708;2023-05-07T02:25:23;6.73;;;4.90;;
11665;SDS011;5889;51.350;6.708;2023-05-07T02:27:50;6.73;;;5.07;;
11665;SDS011;5889;51.350;6.708;2023-05-07T02:30:18;7.03;;;4.93;;
11665;SDS011;5889;51.350;6.708;2023-05-07T02:32:46;7.13;;;4.63;;
11665;SDS011;5889;51.350;6.708;2023-05-07T02:35:13;6.63;;;5.00;;
11665;SDS011;5889;51.350;6.708;2023-05-07T02:37:40;7.87;;;5.03;;
11665;SDS011;5889;51.350;6.708;2023-05-07T02:40:07;6.77;;;5.23;;
11665;SDS011;5889;51.350;6.708;2023-05-07T02:42:35;5.00;;;4.50;;
11665;SDS011;5889;51.350;6.708;2023-05-07T02:45:02;6.23;;;4.97;;
11665;SDS011;5889;51.350;6.708;2023-05-07T02:47:30;6.17;;;4.60;;
11665;SDS011;5889;51.350;6.708;2023-05-07T02:49:57;6.13;;;5.03;;
11665;SDS011;5889;51.350;6.708;2023-05-07T02:52:24;6.73;;;5.30;;
11665;SDS011;5889;51.350;6.708;2023-05-07T02:54:51;7.13;;;4.87;;
11665;SDS011;5889;51.350;6.708;2023-05-07T02:57:18;6.50;;;5.03;;
11665;SDS011;5889;51.350;6.708;2023-05-07T02:59:45;6.27;;;4.67;;
11665;SDS011;5889;51.350;6.708;2023-05-07T03:02:12;7.33;;;4.90;;
11665;SDS011;5889;51.350;6.708;2023-05-07T03:04:43;6.00;;;4.80;;
11665;SDS011;5889;51.350;6.708;2023-05-07T03:07:10;6.50;;;5.03;;
11665;SDS011;5889;51.350;6.708;2023-05-07T03:09:37;4.93;;;4.17;;
11665;SDS011;5889;51.350;6.708;2023-05-07T03:12:04;5.97;;;4.47;;
11665;SDS011;5889;51.350;6.708;2023-05-07T03:14:31;5.90;;;4.73;;
11665;SDS011;5889;51.350;6.708;2023-05-07T03:16:58;4.93;;;4.33;;
11665;SDS011;5889;51.350;6.708;2023-05-07T03:19:25;7.60;;;4.80;;
11665;SDS011;5889;51.350;6.708;2023-05-07T03:21:53;7.97;;;4.87;;
11665;SDS011;5889;51.350;6.708;2023-05-07T03:24:20;6.00;;;4.90;;
11665;SDS011;5889;51.350;6.708;2023-05-07T03:26:47;5.87;;;4.77;;
11665;SDS011;5889;51.350;6.708;2023-05-07T03:29:14;9.70;;;5.60;;
11665;SDS011;5889;51.350;6.708;2023-05-07T03:31:41;8.50;;;4.83;;
11665;SDS011;5889;51.350;6.708;2023-05-07T03:34:08;8.60;;;5.30;;
11665;SDS011;5889;51.350;6.708;2023-05-07T03:36:35;6.10;;;4.63;;
11665;SDS011;5889;51.350;6.708;2023-05-07T03:39:03;5.70;;;5.13;;
11665;SDS011;5889;51.350;6.708;2023-05-07T03:41:31;8.03;;;5.47;;
11665;SDS011;5889;51.350;6.708;2023-05-07T03:44:02;6.57;;;5.10;;
11665;SDS011;5889;51.350;6.708;2023-05-07T03:46:29;6.10;;;4.60;;
11665;SDS011;5889;51.350;6.708;2023-05-07T03:48:57;6.57;;;5.30;;
11665;SDS011;5889;51.350;6.708;2023-05-07T03:51:24;5.10;;;4.60;;
11665;SDS011;5889;51.350;6.708;2023-05-07T03:53:51;6.77;;;5.10;;
11665;SDS011;5889;51.350;6.708;2023-05-07T03:56:20;8.80;;;5.57;;
11665;SDS011;5889;51.350;6.708;2023-05-07T03:58:47;7.87;;;5.67;;
11665;SDS011;5889;51.350;6.708;2023-05-07T04:01:14;8.07;;;5.00;;
11665;SDS011;5889;51.350;6.708;2023-05-07T04:03:41;7.33;;;5.03;;
11665;SDS011;5889;51.350;6.708;2023-05-07T04:06:08;7.50;;;5.70;;
11665;SDS011;5889;51.350;6.708;2023-05-07T04:08:35;7.10;;;5.27;;
11665;SDS011;5889;51.350;6.708;2023-05-07T04:11:02;7.50;;;5.27;;
11665;SDS011;5889;51.350;6.708;2023-05-07T04:13:31;7.60;;;4.90;;
11665;SDS011;5889;51.350;6.708;2023-05-07T04:15:58;7.23;;;5.20;;
11665;SDS011;5889;51.350;6.708;2023-05-07T04:18:27;5.83;;;4.50;;
11665;SDS011;5889;51.350;6.708;2023-05-07T04:20:54;6.80;;;4.57;;
11665;SDS011;5889;51.350;6.708;2023-05-07T04:23:21;6.50;;;4.80;;
11665;SDS011;5889;51.350;6.708;2023-05-07T04:25:48;4.67;;;4.13;;
11665;SDS011;5889;51.350;6.708;2023-05-07T04:28:15;6.13;;;4.93;;
11665;SDS011;5889;51.350;6.708;2023-05-07T04:30:43;6.73;;;4.67;;
11665;SDS011;5889;51.350;6.708;2023-05-07T04:33:10;8.17;;;4.90;;
11665;SDS011;5889;51.350;6.708;2023-05-07T04:35:37;6.87;;;4.67;;
11665;SDS011;5889;51.350;6.708;2023-05-07T04:38:04;5.27;;;4.17;;
11665;SDS011;5889;51.350;6.708;2023-05-07T04:40:30;6.13;;;4.37;;
11665;SDS011;5889;51.350;6.708;2023-05-07T04:42:57;6.97;;;3.83;;
11665;SDS011;5889;51.350;6.708;2023-05-07T04:45:24;4.53;;;3.67;;
11665;SDS011;5889;51.350;6.708;2023-05-07T04:47:53;7.10;;;4.73;;
11665;SDS011;5889;51.350;6.708;2023-05-07T04:50:19;6.50;;;4.30;;
11665;SDS011;5889;51.350;6.708;2023-05-07T04:52:48;6.00;;;4.13;;
11665;SDS011;5889;51.350;6.708;2023-05-07T04:55:15;6.00;;;4.10;;
11665;SDS011;5889;51.350;6.708;2023-05-07T04:57:43;5.23;;;3.70;;
11665;SDS011;5889;51.350;6.708;2023-05-07T05:00:10;6.67;;;3.63;;
11665;SDS011;5889;51.350;6.708;2023-05-07T05:02:39;5.53;;;3.83;;
11665;SDS011;5889;51.350;6.708;2023-05-07T05:05:08;5.23;;;3.70;;
11665;SDS011;5889;51.350;6.708;2023-05-07T05:07:35;3.93;;;3.33;;
11665;SDS011;5889;51.350;6.708;2023-05-07T05:10:02;6.43;;;3.73;;
11665;SDS011;5889;51.350;6.708;2023-05-07T05:12:29;6.10;;;4.00;;
11665;SDS011;5889;51.350;6.708;2023-05-07T05:14:56;5.00;;;3.93;;
11665;SDS011;5889;51.350;6.708;2023-05-07T05:17:23;4.50;;;3.60;;
11665;SDS011;5889;51.350;6.708;2023-05-07T05:19:50;4.87;;;3.80;;
11665;SDS011;5889;51.350;6.708;2023-05-07T05:22:18;5.30;;;3.53;;
11665;SDS011;5889;51.350;6.708;2023-05-07T05:24:45;3.27;;;2.97;;
11665;SDS011;5889;51.350;6.708;2023-05-07T05:27:12;3.83;;;3.30;;
11665;SDS011;5889;51.350;6.708;2023-05-07T05:29:39;3.70;;;3.30;;
11665;SDS011;5889;51.350;6.708;2023-05-07T05:32:06;4.73;;;3.43;;
11665;SDS011;5889;51.350;6.708;2023-05-07T05:34:33;4.60;;;3.20;;
11665;SDS011;5889;51.350;6.708;2023-05-07T05:37:00;4.93;;;3.50;;
11665;SDS011;5889;51.350;6.708;2023-05-07T05:39:28;5.13;;;3.63;;
11665;SDS011;5889;51.350;6.708;2023-05-07T05:41:55;7.37;;;3.30;;
11665;SDS011;5889;51.350;6.708;2023-05-07T05:44:22;4.97;;;3.60;;
11665;SDS011;5889;51.350;6.708;2023-05-07T05:46:50;4.50;;;3.63;;
11665;SDS011;5889;51.350;6.708;2023-05-07T05:49:19;4.40;;;3.53;;
11665;SDS011;5889;51.350;6.708;2023-05-07T05:51:46;5.07;;;3.30;;
11665;SDS011;5889;51.350;6.708;2023-05-07T05:54:13;4.00;;;3.10;;
11665;SDS011;5889;51.350;6.708;2023-05-07T05:56:41;3.70;;;3.27;;
11665;SDS011;5889;51.350;6.708;2023-05-07T05:59:09;3.80;;;3.40;;
11665;SDS011;5889;51.350;6.708;2023-05-07T06:01:36;4.43;;;3.03;;
11665;SDS011;5889;51.350;6.708;2023-05-07T06:04:03;6.70;;;3.80;;
11665;SDS011;5889;51.350;6.708;2023-05-07T06:06:30;4.73;;;3.57;;
11665;SDS011;5889;51.350;6.708;2023-05-07T06:08:57;4.10;;;3.30;;
11665;SDS011;5889;51.350;6.708;2023-05-07T06:11:24;5.30;;;3.40;;
11665;SDS011;5889;51.350;6.708;2023-05-07T06:13:53;6.63;;;3.87;;
11665;SDS011;5889;51.350;6.708;2023-05-07T06:16:20;7.33;;;3.60;;
11665;SDS011;5889;51.350;6.708;2023-05-07T06:18:47;4.10;;;3.30;;
11665;SDS011;5889;51.350;6.708;2023-05-07T06:21:13;5.23;;;3.40;;
11665;SDS011;5889;51.350;6.708;2023-05-07T06:23:40;5.17;;;3.43;;
11665;SDS011;5889;51.350;6.708;2023-05-07T06:26:07;3.60;;;3.30;;
11665;SDS011;5889;51.350;6.708;2023-05-07T06:28:34;4.63;;;3.20;;
11665;SDS011;5889;51.350;6.708;2023-05-07T06:31:12;3.67;;;3.00;;
11665;SDS011;5889;51.350;6.708;2023-05-07T06:33:41;7.07;;;3.70;;
11665;SDS011;5889;51.350;6.708;2023-05-07T06:36:09;3.40;;;3.10;;
11665;SDS011;5889;51.350;6.708;2023-05-07T06:38:36;3.27;;;2.80;;
11665;SDS011;5889;51.350;6.708;2023-05-07T06:41:03;4.00;;;3.10;;
11665;SDS011;5889;51.350;6.708;2023-05-07T06:43:29;3.53;;;2.93;;
11665;SDS011;5889;51.350;6.708;2023-05-07T06:45:56;5.07;;;2.90;;
11665;SDS011;5889;51.350;6.708;2023-05-07T06:48:25;3.63;;;2.60;;
11665;SDS011;5889;51.350;6.708;2023-05-07T06:50:52;3.40;;;2.77;;
11665;SDS011;5889;51.350;6.708;2023-05-07T06:53:20;4.17;;;3.20;;
11665;SDS011;5889;51.350;6.708;2023-05-07T06:55:47;4.10;;;3.10;;
11665;SDS011;5889;51.350;6.708;2023-05-07T06:58:14;5.27;;;2.70;;
11665;SDS011;5889;51.350;6.708;2023-05-07T07:00:41;4.00;;;2.80;;
11665;SDS011;5889;51.350;6.708;2023-05-07T07:03:08;4.20;;;2.83;;
11665;SDS011;5889;51.350;6.708;2023-05-07T07:05:36;3.80;;;2.90;;
11665;SDS011;5889;51.350;6.708;2023-05-07T07:08:04;4.47;;;2.70;;
11665;SDS011;5889;51.350;6.708;2023-05-07T07:10:31;5.57;;;3.00;;
11665;SDS011;5889;51.350;6.708;2023-05-07T07:12:58;3.38;;;3.08;;
11665;SDS011;5889;51.350;6.708;2023-05-07T07:15:25;3.10;;;2.45;;
11665;SDS011;5889;51.350;6.708;2023-05-07T07:17:55;5.73;;;2.50;;
11665;SDS011;5889;51.350;6.708;2023-05-07T07:20:22;3.83;;;2.60;;
11665;SDS011;5889;51.350;6.708;2023-05-07T07:22:50;2.72;;;2.30;;
11665;SDS011;5889;51.350;6.708;2023-05-07T07:25:21;4.63;;;2.63;;
11665;SDS011;5889;51.350;6.708;2023-05-07T07:27:48;2.80;;;2.22;;
11665;SDS011;5889;51.350;6.708;2023-05-07T07:30:15;3.78;;;2.20;;
11665;SDS011;5889;51.350;6.708;2023-05-07T07:32:43;3.35;;;2.00;;
11665;SDS011;5889;51.350;6.708;2023-05-07T07:35:10;5.28;;;2.22;;
11665;SDS011;5889;51.350;6.708;2023-05-07T07:37:37;2.85;;;2.00;;
11665;SDS011;5889;51.350;6.708;2023-05-07T07:40:06;2.97;;;2.10;;
11665;SDS011;5889;51.350;6.708;2023-05-07T07:42:36;4.32;;;2.10;;
11665;SDS011;5889;51.350;6.708;2023-05-07T07:45:04;3.33;;;2.00;;
11665;SDS011;5889;51.350;6.708;2023-05-07T07:47:31;4.78;;;2.20;;
11665;SDS011;5889;51.350;6.708;2023-05-07T07:49:58;2.40;;;2.08;;
11665;SDS011;5889;51.350;6.708;2023-05-07T07:52:28;3.00;;;2.15;;
11665;SDS011;5889;51.350;6.708;2023-05-07T07:54:55;3.67;;;2.30;;
11665;SDS011;5889;51.350;6.708;2023-05-07T07:57:24;3.15;;;2.08;;
11665;SDS011;5889;51.350;6.708;2023-05-07T07:59:51;4.32;;;2.10;;
11665;SDS011;5889;51.350;6.708;2023-05-07T08:02:17;5.13;;;2.20;;
11665;SDS011;5889;51.350;6.708;2023-05-07T08:04:44;3.28;;;1.98;;
11665;SDS011;5889;51.350;6.708;2023-05-07T08:07:12;2.97;;;2.00;;
11665;SDS011;5889;51.350;6.708;2023-05-07T08:09:39;4.60;;;2.05;;
11665;SDS011;5889;51.350;6.708;2023-05-07T08:12:06;3.25;;;2.10;;
11665;SDS011;5889;51.350;6.708;2023-05-07T08:14:35;4.18;;;2.15;;
11665;SDS011;5889;51.350;6.708;2023-05-07T08:17:02;2.90;;;1.90;;
11665;SDS011;5889;51.350;6.708;2023-05-07T08:19:29;2.95;;;1.90;;
11665;SDS011;5889;51.350;6.708;2023-05-07T08:21:56;3.22;;;2.00;;
11665;SDS011;5889;51.350;6.708;2023-05-07T08:24:23;2.28;;;1.80;;
11665;SDS011;5889;51.350;6.708;2023-05-07T08:26:50;3.10;;;2.08;;
11665;SDS011;5889;51.350;6.708;2023-05-07T08:29:17;4.07;;;2.38;;
11665;SDS011;5889;51.350;6.708;2023-05-07T08:31:45;3.85;;;2.00;;
11665;SDS011;5889;51.350;6.708;2023-05-07T08:34:12;3.33;;;2.13;;
11665;SDS011;5889;51.350;6.708;2023-05-07T08:36:41;3.65;;;2.10;;
11665;SDS011;5889;51.350;6.708;2023-05-07T08:39:08;3.08;;;1.88;;
11665;SDS011;5889;51.350;6.708;2023-05-07T08:41:35;2.03;;;1.58;;
11665;SDS011;5889;51.350;6.708;2023-05-07T08:44:02;2.05;;;1.70;;
11665;SDS011;5889;51.350;6.708;2023-05-07T08:46:32;2.72;;;1.70;;
11665;SDS011;5889;51.350;6.708;2023-05-07T08:49:01;3.13;;;2.10;;
11665;SDS011;5889;51.350;6.708;2023-05-07T08:51:28;4.15;;;1.95;;
11665;SDS011;5889;51.350;6.708;2023-05-07T08:53:56;3.90;;;1.90;;
11665;SDS011;5889;51.350;6.708;2023-05-07T08:56:24;3.30;;;2.00;;
11665;SDS011;5889;51.350;6.708;2023-05-07T08:58:51;1.90;;;1.70;;
11665;SDS011;5889;51.350;6.708;2023-05-07T09:01:21;5.80;;;2.33;;
11665;SDS011;5889;51.350;6.708;2023-05-07T09:03:49;2.65;;;1.95;;
11665;SDS011;5889;51.350;6.708;2023-05-07T09:06:17;2.95;;;2.10;;
11665;SDS011;5889;51.350;6.708;2023-05-07T09:08:48;2.10;;;1.65;;
11665;SDS011;5889;51.350;6.708;2023-05-07T09:11:19;1.90;;;1.60;;
11665;SDS011;5889;51.350;6.708;2023-05-07T09:13:47;2.75;;;1.80;;
11665;SDS011;5889;51.350;6.708;2023-05-07T09:16:15;3.15;;;1.50;;
11665;SDS011;5889;51.350;6.708;2023-05-07T09:18:42;2.72;;;1.60;;
11665;SDS011;5889;51.350;6.708;2023-05-07T09:21:10;4.15;;;1.98;;
11665;SDS011;5889;51.350;6.708;2023-05-07T09:23:39;1.88;;;1.20;;
11665;SDS011;5889;51.350;6.708;2023-05-07T09:26:06;4.05;;;1.65;;
11665;SDS011;5889;51.350;6.708;2023-05-07T09:28:38;1.67;;;1.45;;
11665;SDS011;5889;51.350;6.708;2023-05-07T09:31:06;2.83;;;1.70;;
11665;SDS011;5889;51.350;6.708;2023-05-07T09:33:34;3.50;;;1.80;;
11665;SDS011;5889;51.350;6.708;2023-05-07T09:36:04;5.20;;;1.70;;
11665;SDS011;5889;51.350;6.708;2023-05-07T09:38:35;2.30;;;1.80;;
11665;SDS011;5889;51.350;6.708;2023-05-07T09:41:05;2.40;;;1.60;;
11665;SDS011;5889;51.350;6.708;2023-05-07T09:43:36;1.67;;;1.58;;
11665;SDS011;5889;51.350;6.708;2023-05-07T09:46:10;2.55;;;1.60;;
11665;SDS011;5889;51.350;6.708;2023-05-07T09:48:39;2.67;;;1.60;;
11665;SDS011;5889;51.350;6.708;2023-05-07T09:51:11;3.38;;;1.52;;
11665;SDS011;5889;51.350;6.708;2023-05-07T09:53:44;4.85;;;1.65;;
11665;SDS011;5889;51.350;6.708;2023-05-07T09:56:14;2.78;;;1.75;;
11665;SDS011;5889;51.350;6.708;2023-05-07T09:58:42;2.17;;;1.60;;
11665;SDS011;5889;51.350;6.708;2023-05-07T10:01:11;1.92;;;1.30;;
11665;SDS011;5889;51.350;6.708;2023-05-07T10:03:39;2.38;;;1.50;;
11665;SDS011;5889;51.350;6.708;2023-05-07T10:06:08;3.35;;;1.52;;
11665;SDS011;5889;51.350;6.708;2023-05-07T10:08:35;3.67;;;1.48;;
11665;SDS011;5889;51.350;6.708;2023-05-07T10:11:04;2.22;;;1.38;;
11665;SDS011;5889;51.350;6.708;2023-05-07T10:13:36;3.08;;;1.40;;
11665;SDS011;5889;51.350;6.708;2023-05-07T10:16:04;1.40;;;1.25;;
11665;SDS011;5889;51.350;6.708;2023-05-07T10:18:31;2.28;;;1.27;;
11665;SDS011;5889;51.350;6.708;2023-05-07T10:21:01;2.80;;;1.50;;
11665;SDS011;5889;51.350;6.708;2023-05-07T10:23:33;1.65;;;1.38;;
11665;SDS011;5889;51.350;6.708;2023-05-07T10:26:00;4.80;;;1.60;;
11665;SDS011;5889;51.350;6.708;2023-05-07T10:28:30;1.85;;;1.20;;
11665;SDS011;5889;51.350;6.708;2023-05-07T10:31:07;2.35;;;1.40;;
11665;SDS011;5889;51.350;6.708;2023-05-07T10:33:41;3.25;;;1.60;;
11665;SDS011;5889;51.350;6.708;2023-05-07T10:36:10;3.85;;;1.33;;
11665;SDS011;5889;51.350;6.708;2023-05-07T10:38:37;3.67;;;1.48;;
11665;SDS011;5889;51.350;6.708;2023-05-07T10:41:05;4.97;;;1.42;;
11665;SDS011;5889;51.350;6.708;2023-05-07T10:43:43;2.65;;;1.40;;
11665;SDS011;5889;51.350;6.708;2023-05-07T10:46:13;4.47;;;1.73;;
11665;SDS011;5889;51.350;6.708;2023-05-07T10:51:41;2.50;;;1.40;;
11665;SDS011;5889;51.350;6.708;2023-05-07T10:54:23;2.50;;;1.50;;
11665;SDS011;5889;51.350;6.708;2023-05-07T10:56:50;1.67;;;1.33;;
11665;SDS011;5889;51.350;6.708;2023-05-07T11:02:09;1.77;;;1.20;;
11665;SDS011;5889;51.350;6.708;2023-05-07T11:04:39;2.35;;;1.50;;
11665;SDS011;5889;51.350;6.708;2023-05-07T11:07:17;2.72;;;1.38;;
11665;SDS011;5889;51.350;6.708;2023-05-07T11:09:55;1.52;;;1.42;;
11665;SDS011;5889;51.350;6.708;2023-05-07T11:18:10;3.00;;;1.17;;
11665;SDS011;5889;51.350;6.708;2023-05-07T11:20:48;2.30;;;1.42;;
11665;SDS011;5889;51.350;6.708;2023-05-07T11:26:22;2.17;;;1.30;;
11665;SDS011;5889;51.350;6.708;2023-05-07T11:28:50;2.97;;;1.13;;
11665;SDS011;5889;51.350;6.708;2023-05-07T11:31:21;2.75;;;1.30;;
11665;SDS011;5889;51.350;6.708;2023-05-07T11:33:52;2.38;;;1.45;;
11665;SDS011;5889;51.350;6.708;2023-05-07T11:36:20;3.33;;;1.30;;
11665;SDS011;5889;51.350;6.708;2023-05-07T11:38:48;1.48;;;1.08;;
11665;SDS011;5889;51.350;6.708;2023-05-07T11:41:17;2.28;;;1.20;;
11665;SDS011;5889;51.350;6.708;2023-05-07T11:43:53;2.80;;;1.35;;
11665;SDS011;5889;51.350;6.708;2023-05-07T11:46:26;2.72;;;1.20;;
11665;SDS011;5889;51.350;6.708;2023-05-07T11:48:54;3.75;;;1.17;;
11665;SDS011;5889;51.350;6.708;2023-05-07T11:51:21;2.30;;;1.30;;
11665;SDS011;5889;51.350;6.708;2023-05-07T11:53:51;1.63;;;1.02;;
11665;SDS011;5889;51.350;6.708;2023-05-07T11:56:18;1.98;;;1.27;;
11665;SDS011;5889;51.350;6.708;2023-05-07T11:58:46;2.63;;;1.30;;
11665;SDS011;5889;51.350;6.708;2023-05-07T12:01:14;2.17;;;1.20;;
11665;SDS011;5889;51.350;6.708;2023-05-07T12:03:44;2.38;;;1.30;;
11665;SDS011;5889;51.350;6.708;2023-05-07T12:06:12;3.67;;;1.70;;
11665;SDS011;5889;51.350;6.708;2023-05-07T12:08:43;1.98;;;1.40;;
11665;SDS011;5889;51.350;6.708;2023-05-07T12:11:13;4.68;;;1.45;;
11665;SDS011;5889;51.350;6.708;2023-05-07T12:13:42;1.95;;;1.75;;
11665;SDS011;5889;51.350;6.708;2023-05-07T12:16:09;5.60;;;1.85;;
11665;SDS011;5889;51.350;6.708;2023-05-07T12:18:37;3.33;;;1.80;;
11665;SDS011;5889;51.350;6.708;2023-05-07T12:21:05;2.50;;;1.60;;
11665;SDS011;5889;51.350;6.708;2023-05-07T12:23:36;4.35;;;1.77;;
11665;SDS011;5889;51.350;6.708;2023-05-07T12:26:04;3.55;;;1.83;;
11665;SDS011;5889;51.350;6.708;2023-05-07T12:28:32;3.85;;;1.80;;
11665;SDS011;5889;51.350;6.708;2023-05-07T12:31:07;3.58;;;1.40;;
11665;SDS011;5889;51.350;6.708;2023-05-07T12:33:34;5.18;;;1.95;;
11665;SDS011;5889;51.350;6.708;2023-05-07T12:36:07;2.60;;;1.83;;
11665;SDS011;5889;51.350;6.708;2023-05-07T12:38:35;3.33;;;1.85;;
11665;SDS011;5889;51.350;6.708;2023-05-07T12:41:02;2.72;;;1.50;;
11665;SDS011;5889;51.350;6.708;2023-05-07T12:43:30;4.32;;;2.03;;
11665;SDS011;5889;51.350;6.708;2023-05-07T12:45:58;4.55;;;1.80;;
11665;SDS011;5889;51.350;6.708;2023-05-07T12:48:27;3.65;;;2.08;;
11665;SDS011;5889;51.350;6.708;2023-05-07T12:50:54;5.22;;;2.28;;
11665;SDS011;5889;51.350;6.708;2023-05-07T12:53:24;3.78;;;2.22;;
11665;SDS011;5889;51.350;6.708;2023-05-07T12:55:53;4.13;;;2.25;;
11665;SDS011;5889;51.350;6.708;2023-05-07T12:58:21;4.47;;;2.10;;
11665;SDS011;5889;51.350;6.708;2023-05-07T13:00:50;3.08;;;2.03;;
11665;SDS011;5889;51.350;6.708;2023-05-07T13:03:21;4.47;;;2.28;;
11665;SDS011;5889;51.350;6.708;2023-05-07T13:05:50;4.93;;;1.88;;
11665;SDS011;5889;51.350;6.708;2023-05-07T13:08:25;6.18;;;2.00;;
11665;SDS011;5889;51.350;6.708;2023-05-07T13:10:54;2.97;;;1.73;;
11665;SDS011;5889;51.350;6.708;2023-05-07T13:13:21;2.85;;;1.80;;
11665;SDS011;5889;51.350;6.708;2023-05-07T13:15:48;2.30;;;1.73;;
11665;SDS011;5889;51.350;6.708;2023-05-07T13:18:15;4.78;;;2.42;;
11665;SDS011;5889;51.350;6.708;2023-05-07T13:20:42;7.40;;;2.00;;
11665;SDS011;5889;51.350;6.708;2023-05-07T13:23:09;2.17;;;1.75;;
11665;SDS011;5889;51.350;6.708;2023-05-07T13:25:37;2.80;;;2.10;;
11665;SDS011;5889;51.350;6.708;2023-05-07T13:28:04;3.40;;;2.80;;
11665;SDS011;5889;51.350;6.708;2023-05-07T13:30:31;5.47;;;2.72;;
11665;SDS011;5889;51.350;6.708;2023-05-07T13:32:58;4.35;;;3.08;;
11665;SDS011;5889;51.350;6.708;2023-05-07T13:35:26;3.92;;;2.95;;
11665;SDS011;5889;51.350;6.708;2023-05-07T13:37:53;3.58;;;2.90;;
11665;SDS011;5889;51.350;6.708;2023-05-07T13:40:20;4.40;;;2.53;;
11665;SDS011;5889;51.350;6.708;2023-05-07T13:42:49;4.82;;;3.20;;
11665;SDS011;5889;51.350;6.708;2023-05-07T13:45:17;4.88;;;3.10;;
11665;SDS011;5889;51.350;6.708;2023-05-07T13:47:44;4.32;;;2.80;;
11665;SDS011;5889;51.350;6.708;2023-05-07T13:50:14;5.03;;;3.45;;
11665;SDS011;5889;51.350;6.708;2023-05-07T13:52:42;4.82;;;2.90;;
11665;SDS011;5889;51.350;6.708;2023-05-07T13:55:15;5.30;;;2.80;;
11665;SDS011;5889;51.350;6.708;2023-05-07T13:57:42;4.85;;;3.05;;
11665;SDS011;5889;51.350;6.708;2023-05-07T14:00:11;5.20;;;3.80;;
11665;SDS011;5889;51.350;6.708;2023-05-07T14:02:39;4.35;;;3.58;;
11665;SDS011;5889;51.350;6.708;2023-05-07T14:05:06;4.95;;;3.90;;
11665;SDS011;5889;51.350;6.708;2023-05-07T14:07:34;5.75;;;3.72;;
11665;SDS011;5889;51.350;6.708;2023-05-07T14:10:01;5.88;;;4.22;;
11665;SDS011;5889;51.350;6.708;2023-05-07T14:12:28;4.22;;;3.42;;
11665;SDS011;5889;51.350;6.708;2023-05-07T14:14:55;4.85;;;4.20;;
11665;SDS011;5889;51.350;6.708;2023-05-07T14:17:24;6.68;;;4.47;;
11665;SDS011;5889;51.350;6.708;2023-05-07T14:19:52;4.60;;;4.20;;
11665;SDS011;5889;51.350;6.708;2023-05-07T14:22:22;4.95;;;4.35;;
11665;SDS011;5889;51.350;6.708;2023-05-07T14:24:49;6.20;;;4.47;;
11665;SDS011;5889;51.350;6.708;2023-05-07T14:27:17;5.78;;;4.47;;
11665;SDS011;5889;51.350;6.708;2023-05-07T14:29:43;7.05;;;4.47;;
11665;SDS011;5889;51.350;6.708;2023-05-07T14:32:15;4.78;;;4.35;;
11665;SDS011;5889;51.350;6.708;2023-05-07T14:34:44;6.63;;;4.43;;
11665;SDS011;5889;51.350;6.708;2023-05-07T14:37:11;6.88;;;4.97;;
11665;SDS011;5889;51.350;6.708;2023-05-07T14:39:38;6.75;;;4.93;;
11665;SDS011;5889;51.350;6.708;2023-05-07T14:42:05;5.43;;;4.53;;
11665;SDS011;5889;51.350;6.708;2023-05-07T14:44:33;5.68;;;4.75;;
11665;SDS011;5889;51.350;6.708;2023-05-07T14:47:00;6.03;;;5.15;;
11665;SDS011;5889;51.350;6.708;2023-05-07T14:49:27;6.97;;;5.15;;
11665;SDS011;5889;51.350;6.708;2023-05-07T14:51:56;8.27;;;5.68;;
11665;SDS011;5889;51.350;6.708;2023-05-07T14:54:25;9.68;;;5.75;;
11665;SDS011;5889;51.350;6.708;2023-05-07T14:56:52;6.15;;;5.35;;
11665;SDS011;5889;51.350;6.708;2023-05-07T14:59:19;9.00;;;6.05;;
11665;SDS011;5889;51.350;6.708;2023-05-07T15:01:47;8.95;;;6.22;;
11665;SDS011;5889;51.350;6.708;2023-05-07T15:04:15;8.02;;;6.18;;
11665;SDS011;5889;51.350;6.708;2023-05-07T15:06:42;7.68;;;6.20;;
11665;SDS011;5889;51.350;6.708;2023-05-07T15:09:10;10.02;;;6.60;;
11665;SDS011;5889;51.350;6.708;2023-05-07T15:11:37;9.60;;;7.10;;
11665;SDS011;5889;51.350;6.708;2023-05-07T15:14:04;9.68;;;6.30;;
11665;SDS011;5889;51.350;6.708;2023-05-07T15:16:31;9.55;;;6.85;;
11665;SDS011;5889;51.350;6.708;2023-05-07T15:18:59;7.97;;;6.72;;
11665;SDS011;5889;51.350;6.708;2023-05-07T15:21:25;8.55;;;6.65;;